Braden, Tennessee
Current Conditions -  °F | °C
As of 9:50 AM on Wednesday 22 Oct 2014 (Local Time) from KNQA Reporting Station
Clear Clear  
Wind Chill: 57°   Ceiling: Unl
Heat Index: 57°   Visibility: 10mi
Dew Point: 45°   Wind: 6mph
Humidity: 63%   Direction: 40°NE
Pressure: 30.26"   Gusts: NA
Location:  35.38°N, 89.57°W
Report Text: KNQA 221450Z 04005KT 10SM SKC 14/07 A3026
Loading
Personal Weather Stations






























Interactive Weather Map
Tropical Storm Tracking
New forecast layout! Learn more

10-Day Weather Forecast

Advertisements
Track Severe Weather on mobile